Airfield :
LOGIN :

Register | Disclaimer

   EN    FR    IT 

 










Legend :    VFR   Marginal VFR   IFR   Intensive IFR   Very Intensive IFR
Visi :
Ceiling :
>= 8 km
>= 3000ft
5 to 8 km
1000 to 3000 ft
1500m to 5 km
500 to 1000 ft
800 to 1500m
200 to 500 ft
< 800m
< 200 ft
Symbols :   Thunderstorms  Fog  Heavy snow  Heavy precipitations  Wind > 20 kt
SIGMETs :     Misc.  Thunderstorms  Icing  Turbulence  Mountain Waves  Volcanic Ashes






- Airport Elevation : 74 ft
- IATA code : MRS


LFML - Marseille / Marignane

CURRENT METAR :
  • 230800Z AUTO 10021KT CAVOK 24/11 Q1009 TEMPO 12025G35KT BKN020TCU

EXPIRED METARs :
  • 230730Z AUTO 10019G29KT 9999 FEW016 OVC062 24/11 Q1009 TEMPO BKN020TCU
  • 230700Z AUTO 09018KT 9999 FEW014 BKN062 24/11 Q1009 TEMPO 12025G35KT BKN020TCU
  • 230630Z AUTO 09016KT CAVOK 24/11 Q1009 TEMPO 12025G35KT BKN020TCU
  • 230600Z AUTO 09016KT CAVOK 24/11 Q1009 TEMPO 09030G40KT 4000 -TSRA FEW014 FEW040CB OVC050
  • 230530Z AUTO 10017KT CAVOK 24/11 Q1008 TEMPO 09030G40KT 4000 -TSRA FEW014 FEW040CB OVC050

TAF AMD TAF LFML
Valid from the 23 at 05:00 until the 24 at 09:00 UTC


230526Z 2305/2409 10017KT CAVOK TX24/2306Z TN15/2407Z
TEMPO 2305/2310 12025G35KT -SHRA BKN020TCU
BECMG 2310/2311 12026G40KT SCT050TCU
PROB40 2311/2314 12028G45KT 1000 +TSRA BKN010 BKN020CB
PROB30
TEMPO 2312/2314 VRB30G50KT TSRAGR
TEMPO 2314/2318 10025G35KT 2000 TSRA SCT010 BKN016CB
BECMG 2318/2319 VRB15KT 4000 RA SCT015 BKN033TCU
BECMG 2321/2323 14010KT 9999 NSW SCT020
TEMPO 2323/2405 SHRA BKN016TCU
BECMG 2405/2407 09006KT CAVOK
ATIS : +33 4 42 31 15 15



MET'MAP, your aeronautical weather chart ! - Copyright ORBIFLY December 2007 - Disclaimer

ORBIFLY MET'MAP TEAM :

Programming & Development : Alexandra Zaïnal
Concept & Development : Baudouin d'Aumeries
Co-Development & Prog : Marc-Olivier Méhu
Technical & hardware support : Manuel Goepfert

Contact : metmap@orbifly.com




SOURCES & CREDITS :

   NOAA